createdAt,value
2024-02-21T00:00:07.471Z,96.85
2024-02-21T00:02:36.791Z,99.48
2024-02-21T00:05:10.438Z,99.37
2024-02-21T00:07:40.356Z,99.94
2024-02-21T00:10:11.404Z,100.00
2024-02-21T00:12:48.154Z,99.85
2024-02-21T00:15:19.894Z,100.00
2024-02-21T00:17:50.353Z,99.33
2024-02-21T00:20:22.517Z,98.57
2024-02-21T00:22:53.121Z,99.73
2024-02-21T00:25:23.626Z,99.17
2024-02-21T00:27:55.147Z,98.99
2024-02-21T00:30:27.458Z,98.30
2024-02-21T00:32:56.881Z,98.51
2024-02-21T00:35:29.109Z,97.61
2024-02-21T00:38:01.218Z,99.10
2024-02-21T00:40:31.207Z,98.02
2024-02-21T00:43:05.179Z,98.56
2024-02-21T00:45:34.315Z,97.94
2024-02-21T00:48:06.681Z,98.10
2024-02-21T00:50:38.940Z,99.00
2024-02-21T00:53:11.282Z,99.20
2024-02-21T00:55:43.930Z,100.00
2024-02-21T00:58:14.325Z,100.00
2024-02-21T01:00:49.486Z,100.00
2024-02-21T01:03:18.801Z,100.00
2024-02-21T01:05:52.148Z,100.00
2024-02-21T01:08:21.340Z,100.00
2024-02-21T01:10:53.743Z,100.00
2024-02-21T01:13:25.279Z,100.00
2024-02-21T01:15:57.482Z,100.00
2024-02-21T01:18:27.735Z,100.00
2024-02-21T01:21:01.616Z,100.00
2024-02-21T01:23:32.972Z,100.00
2024-02-21T01:26:03.072Z,100.00
2024-02-21T01:28:32.991Z,100.00
2024-02-21T01:31:05.013Z,100.00
2024-02-21T01:33:36.804Z,100.00
2024-02-21T01:36:11.977Z,100.00
2024-02-21T01:38:41.560Z,100.00
2024-02-21T01:41:12.199Z,100.00
2024-02-21T01:43:41.074Z,100.00
2024-02-21T01:46:13.543Z,100.00
2024-02-21T01:48:42.935Z,100.00
2024-02-21T01:51:16.570Z,100.00
2024-02-21T01:53:48.003Z,100.00
2024-02-21T01:56:16.947Z,100.00
2024-02-21T01:58:47.821Z,100.00
2024-02-21T02:01:21.754Z,100.00
2024-02-21T02:03:54.254Z,100.00
2024-02-21T02:06:25.255Z,100.00
2024-02-21T02:08:54.793Z,100.00
2024-02-21T02:11:23.978Z,100.00
2024-02-21T02:13:55.096Z,100.00
2024-02-21T02:16:24.201Z,100.00
2024-02-21T02:18:53.962Z,100.00
2024-02-21T02:21:33.759Z,100.00
2024-02-21T02:24:06.053Z,100.00
2024-02-21T02:26:35.145Z,100.00
2024-02-21T02:29:04.502Z,100.00
2024-02-21T02:31:36.059Z,100.00
2024-02-21T02:34:05.493Z,100.00
2024-02-21T02:36:35.678Z,100.00
2024-02-21T02:39:06.513Z,100.00
2024-02-21T02:41:37.879Z,100.00
2024-02-21T02:44:07.645Z,100.00
2024-02-21T02:46:36.623Z,100.00
2024-02-21T02:49:08.689Z,100.00
2024-02-21T02:51:39.232Z,100.00
2024-02-21T02:54:10.451Z,100.00
2024-02-21T02:56:42.569Z,100.00
2024-02-21T02:59:14.932Z,100.00
2024-02-21T03:01:47.219Z,100.00
2024-02-21T03:04:17.892Z,100.00
2024-02-21T03:06:49.853Z,100.00
2024-02-21T03:09:20.109Z,100.00
2024-02-21T03:11:49.291Z,100.00
2024-02-21T03:14:20.372Z,100.00
2024-02-21T03:16:50.196Z,100.00
2024-02-21T03:19:20.016Z,100.00
2024-02-21T03:21:50.728Z,100.00
2024-02-21T03:24:26.604Z,100.00
2024-02-21T03:26:56.241Z,100.00
2024-02-21T03:29:28.404Z,100.00
2024-02-21T03:32:10.920Z,100.00
2024-02-21T03:34:41.280Z,100.00
2024-02-21T03:37:10.525Z,100.00
2024-02-21T03:39:44.311Z,100.00
2024-02-21T03:42:14.817Z,100.00
2024-02-21T03:44:45.183Z,100.00
2024-02-21T03:47:15.730Z,100.00
2024-02-21T03:49:46.284Z,100.00
2024-02-21T03:52:15.703Z,100.00
2024-02-21T03:54:46.579Z,100.00
2024-02-21T03:57:18.045Z,100.00
2024-02-21T03:59:50.639Z,100.00
2024-02-21T04:02:22.411Z,100.00
2024-02-21T04:04:51.407Z,100.00
2024-02-21T04:07:24.344Z,100.00
2024-02-21T04:09:57.161Z,100.00
2024-02-21T04:12:28.105Z,100.00
2024-02-21T04:14:59.271Z,100.00
2024-02-21T04:17:29.244Z,100.00
2024-02-21T04:20:06.953Z,100.00
2024-02-21T04:22:39.496Z,100.00
2024-02-21T04:25:22.781Z,100.00
2024-02-21T04:27:52.588Z,100.00
2024-02-21T04:30:22.491Z,100.00
2024-02-21T04:32:51.777Z,100.00
2024-02-21T04:35:23.529Z,100.00
2024-02-21T04:37:53.126Z,100.00
2024-02-21T04:40:25.664Z,100.00
2024-02-21T04:42:59.652Z,100.00
2024-02-21T04:45:29.762Z,100.00
2024-02-21T04:48:06.040Z,100.00
2024-02-21T04:50:37.299Z,100.00
2024-02-21T04:53:06.391Z,100.00
2024-02-21T04:55:37.553Z,100.00
2024-02-21T04:58:06.408Z,100.00
2024-02-21T05:00:35.991Z,100.00
2024-02-21T05:03:06.411Z,100.00
2024-02-21T05:05:35.729Z,100.00
2024-02-21T05:08:05.139Z,100.00
2024-02-21T05:10:35.286Z,100.00
2024-02-21T05:13:06.081Z,100.00
2024-02-21T05:15:35.633Z,100.00
2024-02-21T05:18:06.334Z,100.00
2024-02-21T05:20:37.110Z,100.00
2024-02-21T05:23:07.253Z,100.00
2024-02-21T05:25:38.980Z,100.00
2024-02-21T05:28:12.462Z,100.00
2024-02-21T05:30:42.608Z,100.00
2024-02-21T05:33:11.629Z,100.00
2024-02-21T05:35:41.704Z,100.00
2024-02-21T05:38:13.264Z,100.00
2024-02-21T05:40:43.587Z,100.00
2024-02-21T05:43:15.832Z,100.00
2024-02-21T05:45:46.845Z,100.00
2024-02-21T05:48:16.403Z,100.00
2024-02-21T05:50:47.136Z,100.00
2024-02-21T05:53:16.549Z,100.00
2024-02-21T05:55:45.822Z,100.00
2024-02-21T05:58:17.752Z,100.00
2024-02-21T06:00:46.797Z,100.00
2024-02-21T06:03:18.936Z,100.00
2024-02-21T06:05:50.878Z,100.00
2024-02-21T06:08:20.372Z,100.00
2024-02-21T06:10:55.305Z,100.00
2024-02-21T06:13:26.445Z,100.00
2024-02-21T06:15:55.852Z,100.00
2024-02-21T06:18:26.522Z,100.00
2024-02-21T06:20:57.886Z,100.00
2024-02-21T06:23:29.691Z,100.00
2024-02-21T06:25:59.199Z,100.00
2024-02-21T06:28:30.614Z,100.00
2024-02-21T06:31:00.443Z,100.00
2024-02-21T06:33:33.469Z,100.00
2024-02-21T06:36:20.175Z,100.00
2024-02-21T06:38:59.468Z,100.00
2024-02-21T06:41:29.028Z,100.00
2024-02-21T06:44:00.008Z,100.00
2024-02-21T06:46:37.238Z,100.00
2024-02-21T06:49:10.013Z,100.00
2024-02-21T06:51:42.082Z,100.00
2024-02-21T06:54:14.296Z,100.00
2024-02-21T06:56:46.047Z,100.00
2024-02-21T06:59:19.060Z,100.00
2024-02-21T07:01:53.325Z,100.00
2024-02-21T07:04:25.133Z,100.00
2024-02-21T07:06:57.678Z,100.00
2024-02-21T07:09:36.484Z,100.00
2024-02-21T07:12:06.368Z,100.00
2024-02-21T07:14:38.170Z,100.00
2024-02-21T07:17:07.473Z,100.00
2024-02-21T07:19:37.656Z,100.00
2024-02-21T07:22:14.346Z,100.00
2024-02-21T07:24:48.177Z,100.00
2024-02-21T07:27:32.193Z,100.00
2024-02-21T07:30:09.290Z,100.00
2024-02-21T07:32:40.008Z,100.00
2024-02-21T07:35:12.037Z,100.00
2024-02-21T07:37:41.869Z,100.00
2024-02-21T07:40:16.948Z,100.00
2024-02-21T07:42:51.527Z,100.00
2024-02-21T07:45:27.958Z,100.00
2024-02-21T07:47:59.072Z,100.00
2024-02-21T07:50:30.703Z,100.00
2024-02-21T07:53:00.525Z,100.00
2024-02-21T07:55:32.470Z,100.00
2024-02-21T07:58:04.732Z,100.00
2024-02-21T08:00:35.514Z,100.00
2024-02-21T08:03:06.175Z,100.00
2024-02-21T08:05:37.065Z,100.00
2024-02-21T08:08:08.682Z,100.00
2024-02-21T08:10:38.644Z,100.00
2024-02-21T08:13:08.624Z,100.00
2024-02-21T08:15:42.692Z,100.00
2024-02-21T08:18:12.622Z,100.00
2024-02-21T08:20:44.176Z,100.00
2024-02-21T08:23:15.258Z,100.00
2024-02-21T08:25:51.872Z,100.00
2024-02-21T08:28:24.261Z,100.00
2024-02-21T08:30:55.863Z,100.00
2024-02-21T08:33:26.834Z,100.00
2024-02-21T08:35:56.895Z,100.00
2024-02-21T08:38:26.865Z,100.00
2024-02-21T08:40:56.599Z,100.00
2024-02-21T08:43:29.878Z,100.00
2024-02-21T08:46:03.930Z,100.00
2024-02-21T08:48:35.616Z,100.00
2024-02-21T08:51:07.397Z,96.72
2024-02-21T08:53:36.736Z,91.63
2024-02-21T08:56:07.296Z,89.55
2024-02-21T08:58:39.406Z,80.19
2024-02-21T09:01:14.441Z,75.76
2024-02-21T09:03:45.693Z,76.96
2024-02-21T09:06:18.244Z,74.18
2024-02-21T09:08:47.326Z,79.86
2024-02-21T09:11:17.697Z,71.20
2024-02-21T09:13:47.976Z,71.07
2024-02-21T09:16:21.372Z,67.97
2024-02-21T09:18:51.706Z,63.41
2024-02-21T09:21:25.384Z,64.58
2024-02-21T09:24:00.151Z,66.00
2024-02-21T09:26:32.372Z,70.65
2024-02-21T09:29:05.696Z,72.26
2024-02-21T09:31:36.234Z,73.49
2024-02-21T09:34:06.386Z,74.67
2024-02-21T09:36:38.478Z,74.93
2024-02-21T09:39:08.850Z,74.29
2024-02-21T09:41:46.825Z,74.38
2024-02-21T09:44:20.560Z,73.49
2024-02-21T09:46:58.481Z,71.98
2024-02-21T09:49:34.011Z,73.13
2024-02-21T09:52:06.228Z,70.63
2024-02-21T09:54:36.757Z,68.18
2024-02-21T09:57:06.985Z,68.64
2024-02-21T09:59:37.177Z,69.34
2024-02-21T10:02:08.888Z,69.47
2024-02-21T10:04:40.060Z,68.89
2024-02-21T10:07:10.558Z,66.72
2024-02-21T10:09:44.859Z,63.58
2024-02-21T10:12:15.103Z,60.24
2024-02-21T10:14:44.922Z,61.42
2024-02-21T10:17:20.568Z,59.11
2024-02-21T10:19:51.660Z,60.36
2024-02-21T10:22:22.514Z,59.97
2024-02-21T10:24:52.856Z,59.17
2024-02-21T10:27:28.312Z,62.62
2024-02-21T10:29:58.753Z,62.03
2024-02-21T10:32:31.968Z,59.55
2024-02-21T10:35:07.235Z,58.65
2024-02-21T10:37:37.641Z,60.59
2024-02-21T10:40:09.165Z,58.00
2024-02-21T10:42:41.311Z,58.01
2024-02-21T10:45:13.714Z,58.49
2024-02-21T10:47:53.996Z,59.24
2024-02-21T10:50:27.648Z,60.00
2024-02-21T10:53:11.079Z,62.23
2024-02-21T10:55:44.203Z,62.38
2024-02-21T10:58:16.887Z,60.62
2024-02-21T11:00:47.205Z,59.96
2024-02-21T11:03:18.486Z,59.46
2024-02-21T11:05:51.605Z,61.89
2024-02-21T11:08:30.870Z,61.61
2024-02-21T11:11:04.666Z,60.28
2024-02-21T11:13:39.989Z,58.59
2024-02-21T11:16:11.716Z,56.53
2024-02-21T11:18:42.763Z,55.74
2024-02-21T11:21:13.265Z,52.85
2024-02-21T11:23:43.483Z,51.92
2024-02-21T11:26:22.966Z,53.24
2024-02-21T11:29:02.871Z,51.43
2024-02-21T11:31:44.812Z,49.04
2024-02-21T11:34:20.076Z,49.02
2024-02-21T11:36:53.273Z,49.87
2024-02-21T11:39:25.943Z,47.75
2024-02-21T11:42:09.106Z,48.92
2024-02-21T11:44:41.059Z,47.32
2024-02-21T11:47:12.948Z,45.67
2024-02-21T11:49:50.785Z,45.44
2024-02-21T11:52:24.383Z,45.16
2024-02-21T11:54:59.198Z,44.05
2024-02-21T11:57:29.013Z,44.46
2024-02-21T12:00:03.296Z,46.58
2024-02-21T12:02:39.146Z,48.78
2024-02-21T12:05:12.123Z,49.78
2024-02-21T12:07:42.426Z,50.58
2024-02-21T12:10:14.207Z,48.70
2024-02-21T12:12:46.495Z,46.55
2024-02-21T12:15:16.734Z,46.29
2024-02-21T12:17:46.736Z,45.32
2024-02-21T12:20:17.666Z,45.11
2024-02-21T12:22:47.017Z,46.74
2024-02-21T12:25:20.742Z,46.61
2024-02-21T12:27:52.016Z,46.58
2024-02-21T12:30:22.672Z,45.53
2024-02-21T12:32:54.014Z,45.08
2024-02-21T12:35:26.013Z,46.87
2024-02-21T12:37:58.653Z,45.83
2024-02-21T12:40:27.895Z,44.62
2024-02-21T12:42:58.066Z,46.27
2024-02-21T12:45:32.214Z,44.18
2024-02-21T12:48:03.170Z,44.85
2024-02-21T12:50:40.081Z,43.75
2024-02-21T12:53:19.613Z,43.97
2024-02-21T12:55:53.034Z,44.48
2024-02-21T12:58:24.567Z,44.92
2024-02-21T13:00:55.657Z,43.14
2024-02-21T13:03:33.160Z,43.18
2024-02-21T13:06:04.674Z,43.63
2024-02-21T13:08:35.717Z,43.50
2024-02-21T13:11:10.795Z,44.38
2024-02-21T13:13:45.445Z,44.41
2024-02-21T13:16:15.588Z,45.77
2024-02-21T13:18:46.421Z,46.86
2024-02-21T13:21:20.753Z,46.29
2024-02-21T13:23:52.026Z,45.42
2024-02-21T13:26:27.774Z,45.60
2024-02-21T13:28:58.475Z,46.22
2024-02-21T13:31:27.973Z,45.36
2024-02-21T13:34:02.589Z,43.58
2024-02-21T13:36:38.667Z,44.42
2024-02-21T13:39:08.400Z,46.84
2024-02-21T13:41:37.567Z,44.18
2024-02-21T13:44:08.241Z,44.48
2024-02-21T13:46:38.186Z,45.38
2024-02-21T13:49:09.980Z,45.36
2024-02-21T13:51:45.814Z,45.08
2024-02-21T13:54:18.284Z,46.07
2024-02-21T13:56:48.818Z,45.31
2024-02-21T13:59:19.451Z,45.17
2024-02-21T14:01:50.833Z,46.17
2024-02-21T14:04:20.084Z,44.83
2024-02-21T14:06:54.713Z,43.51
2024-02-21T14:09:30.977Z,42.62
2024-02-21T14:12:01.848Z,42.26
2024-02-21T14:14:31.248Z,44.29
2024-02-21T14:17:01.739Z,44.59
2024-02-21T14:19:32.855Z,45.59
2024-02-21T14:22:04.976Z,44.50
2024-02-21T14:24:36.638Z,44.12
2024-02-21T14:27:07.359Z,44.30
2024-02-21T14:29:44.899Z,43.64
2024-02-21T14:32:16.770Z,43.58
2024-02-21T14:34:51.541Z,43.97
2024-02-21T14:37:28.709Z,44.99
2024-02-21T14:39:59.702Z,45.23
2024-02-21T14:42:32.357Z,45.45
2024-02-21T14:45:07.231Z,45.81
2024-02-21T14:47:38.736Z,45.40
2024-02-21T14:50:13.111Z,45.44
2024-02-21T14:52:46.952Z,45.10
2024-02-21T14:55:19.714Z,45.05
2024-02-21T14:57:52.227Z,44.72
2024-02-21T15:00:29.420Z,44.59
2024-02-21T15:02:59.945Z,44.89
2024-02-21T15:05:34.034Z,44.49
2024-02-21T15:08:09.895Z,44.73
2024-02-21T15:10:39.442Z,44.92
2024-02-21T15:13:08.362Z,44.90
2024-02-21T15:15:37.815Z,45.34
2024-02-21T15:18:07.660Z,45.47
2024-02-21T15:20:38.286Z,45.61
2024-02-21T15:23:11.379Z,45.38
2024-02-21T15:25:41.888Z,45.59
2024-02-21T15:28:11.716Z,45.44
2024-02-21T15:30:41.502Z,46.23
2024-02-21T15:33:13.378Z,46.50
2024-02-21T15:35:45.285Z,47.30
2024-02-21T15:38:17.758Z,47.70
2024-02-21T15:40:48.140Z,47.92
2024-02-21T15:43:21.812Z,48.98
2024-02-21T15:45:53.332Z,49.51
2024-02-21T15:48:26.325Z,50.31
2024-02-21T15:50:56.974Z,51.56
2024-02-21T15:53:31.741Z,52.22
2024-02-21T15:56:04.715Z,52.58
2024-02-21T15:58:39.611Z,53.53
2024-02-21T16:01:12.777Z,53.26
2024-02-21T16:03:46.335Z,54.09
2024-02-21T16:06:18.507Z,53.91
2024-02-21T16:08:53.617Z,53.93
2024-02-21T16:11:28.791Z,54.40
2024-02-21T16:14:09.118Z,54.73
2024-02-21T16:16:42.561Z,54.66
2024-02-21T16:19:18.359Z,55.32
2024-02-21T16:21:49.975Z,55.51
2024-02-21T16:24:28.767Z,56.24
2024-02-21T16:27:05.041Z,57.75
2024-02-21T16:29:37.944Z,56.15
2024-02-21T16:32:10.713Z,56.87
2024-02-21T16:34:49.153Z,56.41
2024-02-21T16:37:19.751Z,56.80
2024-02-21T16:39:50.926Z,56.84
2024-02-21T16:42:29.318Z,56.94
2024-02-21T16:44:58.754Z,57.33
2024-02-21T16:47:30.338Z,58.82
2024-02-21T16:50:05.668Z,58.42
2024-02-21T16:52:35.957Z,59.09
2024-02-21T16:58:26.657Z,58.64
2024-02-21T17:01:10.412Z,59.25
2024-02-21T17:03:43.440Z,60.29
2024-02-21T17:06:17.847Z,60.41
2024-02-21T17:08:48.340Z,61.13
2024-02-21T17:11:19.301Z,61.45
2024-02-21T17:13:52.568Z,60.95
2024-02-21T17:16:26.856Z,60.46
2024-02-21T17:18:56.049Z,60.77
2024-02-21T17:21:25.011Z,59.80
2024-02-21T17:23:54.181Z,60.67
2024-02-21T17:26:27.488Z,59.99
2024-02-21T17:28:56.390Z,60.00
2024-02-21T17:31:29.357Z,60.32
2024-02-21T17:34:01.151Z,60.86
2024-02-21T17:36:30.177Z,61.26
2024-02-21T17:39:01.132Z,61.36
2024-02-21T17:41:31.669Z,61.34
2024-02-21T17:46:53.179Z,61.34
2024-02-21T17:49:22.400Z,61.15
2024-02-21T17:51:55.322Z,61.46
2024-02-21T17:54:24.476Z,61.78
2024-02-21T17:57:00.674Z,61.49
2024-02-21T17:59:33.300Z,61.93
2024-02-21T18:02:03.579Z,61.59
2024-02-21T18:04:32.510Z,61.40
2024-02-21T18:07:04.193Z,62.42
2024-02-21T18:09:35.523Z,62.30
2024-02-21T18:12:12.484Z,62.72
2024-02-21T18:14:42.794Z,62.41
2024-02-21T18:17:28.588Z,62.48
2024-02-21T18:20:11.979Z,63.13
2024-02-21T18:22:42.917Z,63.59
2024-02-21T18:25:14.127Z,63.84
2024-02-21T18:28:30.467Z,63.92
2024-02-21T18:31:07.801Z,64.49
2024-02-21T18:33:36.717Z,64.40
2024-02-21T18:36:15.088Z,64.93
2024-02-21T18:38:46.300Z,65.55
2024-02-21T18:41:16.405Z,64.67
2024-02-21T18:43:47.950Z,64.59
2024-02-21T18:46:18.035Z,64.89
2024-02-21T18:48:58.995Z,64.36
2024-02-21T18:51:29.837Z,64.84
2024-02-21T18:54:09.674Z,64.84
2024-02-21T18:56:42.789Z,65.21
2024-02-21T18:59:23.696Z,64.12
2024-02-21T19:01:55.769Z,63.96
2024-02-21T19:07:20.309Z,63.49
2024-02-21T19:09:53.477Z,63.63
2024-02-21T19:12:22.456Z,63.40
2024-02-21T19:14:53.382Z,63.75
2024-02-21T19:17:25.367Z,63.89
2024-02-21T19:20:09.233Z,63.68
2024-02-21T19:22:58.038Z,64.01
2024-02-21T19:25:36.276Z,64.00
2024-02-21T19:28:08.224Z,63.88
2024-02-21T19:30:53.523Z,63.40
2024-02-21T19:33:35.581Z,63.45
2024-02-21T19:36:13.509Z,63.13
2024-02-21T19:38:49.058Z,63.14
2024-02-21T19:41:26.867Z,63.20
2024-02-21T19:44:06.568Z,63.23
2024-02-21T19:46:50.411Z,63.62
2024-02-21T19:49:23.889Z,62.85
2024-02-21T19:51:53.766Z,63.08
2024-02-21T19:54:27.410Z,62.99
2024-02-21T19:56:56.873Z,62.77
2024-02-21T19:59:26.451Z,63.03
2024-02-21T20:02:00.119Z,63.52
2024-02-21T20:04:29.500Z,62.13
2024-02-21T20:07:04.253Z,61.89
2024-02-21T20:09:38.157Z,62.04
2024-02-21T20:12:18.530Z,62.60
2024-02-21T20:14:52.746Z,62.44
2024-02-21T20:17:26.674Z,62.93
2024-02-21T20:20:13.083Z,62.62
2024-02-21T20:22:51.826Z,62.74
2024-02-21T20:25:28.768Z,63.87
2024-02-21T20:28:11.614Z,62.35
2024-02-21T20:30:50.929Z,62.54
2024-02-21T20:33:29.017Z,62.98
2024-02-21T20:36:03.204Z,62.58
2024-02-21T20:38:37.912Z,62.52
2024-02-21T20:41:12.847Z,62.55
2024-02-21T20:43:53.581Z,62.56
2024-02-21T20:46:27.295Z,62.66
2024-02-21T20:49:05.280Z,62.73
2024-02-21T20:51:42.337Z,62.72
2024-02-21T20:54:14.432Z,62.01
2024-02-21T20:56:52.503Z,61.88
2024-02-21T20:59:24.741Z,62.55
2024-02-21T21:02:02.620Z,62.14
2024-02-21T21:04:42.312Z,62.72
2024-02-21T21:07:11.823Z,62.23
2024-02-21T21:09:47.531Z,62.85
2024-02-21T21:12:20.361Z,62.45
2024-02-21T21:14:49.885Z,62.16
2024-02-21T21:17:24.010Z,62.03
2024-02-21T21:19:54.636Z,62.11
2024-02-21T21:22:27.211Z,61.98
2024-02-21T21:24:58.821Z,61.85
2024-02-21T21:27:31.481Z,61.95
2024-02-21T21:30:04.639Z,61.99
2024-02-21T21:32:36.627Z,61.49
2024-02-21T21:35:12.913Z,61.58
2024-02-21T21:37:43.784Z,61.51
2024-02-21T21:40:16.631Z,61.63
2024-02-21T21:42:46.736Z,61.77
2024-02-21T21:45:18.759Z,61.76
2024-02-21T21:47:49.549Z,61.70
2024-02-21T21:50:20.826Z,62.00
2024-02-21T21:52:51.738Z,61.70
2024-02-21T21:55:38.606Z,61.92
2024-02-21T21:58:22.753Z,61.98
2024-02-21T22:01:07.767Z,62.30
2024-02-21T22:03:44.632Z,61.82
2024-02-21T22:06:17.333Z,62.01
2024-02-21T22:08:56.034Z,61.73
2024-02-21T22:11:25.390Z,61.77
2024-02-21T22:13:55.921Z,62.01
2024-02-21T22:16:25.481Z,62.03
2024-02-21T22:18:56.873Z,61.99
2024-02-21T22:21:30.836Z,61.61
2024-02-21T22:24:00.162Z,61.58
2024-02-21T22:26:29.770Z,61.32
2024-02-21T22:29:02.169Z,61.43
2024-02-21T22:31:32.985Z,61.46
2024-02-21T22:34:04.576Z,61.85
2024-02-21T22:36:42.555Z,62.16
2024-02-21T22:39:11.475Z,61.86
2024-02-21T22:41:40.534Z,61.54
2024-02-21T22:44:10.941Z,61.45
2024-02-21T22:46:41.383Z,61.41
2024-02-21T22:49:10.952Z,61.52
2024-02-21T22:51:42.714Z,61.10
2024-02-21T22:54:12.315Z,61.45
2024-02-21T22:56:41.088Z,61.31
2024-02-21T22:59:12.021Z,61.17
2024-02-21T23:01:40.941Z,60.44
2024-02-21T23:04:16.004Z,60.58
2024-02-21T23:06:48.612Z,60.31
2024-02-21T23:09:20.930Z,60.06
2024-02-21T23:11:52.434Z,60.16
2024-02-21T23:14:25.997Z,59.68
2024-02-21T23:16:56.304Z,59.39
2024-02-21T23:19:27.371Z,58.62
2024-02-21T23:22:00.880Z,58.56
2024-02-21T23:24:30.540Z,59.59
2024-02-21T23:27:05.365Z,59.43
2024-02-21T23:29:38.388Z,59.78
2024-02-21T23:32:08.321Z,59.53
2024-02-21T23:34:40.318Z,59.56
2024-02-21T23:37:19.503Z,60.14
2024-02-21T23:39:51.666Z,60.22
2024-02-21T23:42:23.651Z,59.85
2024-02-21T23:44:59.273Z,59.96
2024-02-21T23:47:29.667Z,59.71
2024-02-21T23:49:59.889Z,59.55
2024-02-21T23:52:31.023Z,60.06
2024-02-21T23:55:03.600Z,60.04
2024-02-21T23:57:35.417Z,60.31
